Time;durP1;ratioP1;P1;durP2;ratioP2;P2;SDS_P1;SDS_P2;PMS_P1;PMS_P2;Temp;Humidity;BMP_temperature;BMP_pressure;BME280_temperature;BME280_humidity;BME280_pressure;Samples;Min_cycle;Max_cycle;Signal;HPM_P1;HPM_P2
2023/08/02 00:00:23;;;;;;;16.42;14.35;;;;;;;;;;4934394;29;21003;-74
2023/08/02 00:02:49;;;;;;;14.82;12.20;;;;;;;;;;4951900;28;20046;-73
2023/08/02 00:05:15;;;;;;;27.05;12.05;;;;;;;;;;4951643;28;20035;-73
2023/08/02 00:07:42;;;;;;;21.92;11.75;;;;;;;;;;4951785;29;20046;-72
2023/08/02 00:10:08;;;;;;;18.48;12.55;;;;;;;;;;4951812;29;20038;-73
2023/08/02 00:12:34;;;;;;;21.15;14.43;;;;;;;;;;4951572;29;20395;-72
2023/08/02 00:15:00;;;;;;;23.90;15.25;;;;;;;;;;4952265;28;20038;-73
2023/08/02 00:17:26;;;;;;;19.65;17.48;;;;;;;;;;4954293;29;20031;-72
2023/08/02 00:19:52;;;;;;;27.02;20.63;;;;;;;;;;4955395;28;20046;-73
2023/08/02 00:22:18;;;;;;;28.20;19.58;;;;;;;;;;4954228;29;20036;-74
2023/08/02 00:24:44;;;;;;;27.90;20.23;;;;;;;;;;4957599;29;20501;-72
2023/08/02 00:27:12;;;;;;;18.88;13.90;;;;;;;;;;4956076;28;20122;-73
2023/08/02 00:29:38;;;;;;;26.48;16.67;;;;;;;;;;4953662;29;20106;-73
2023/08/02 00:32:04;;;;;;;24.75;17.52;;;;;;;;;;4955260;29;20035;-72
2023/08/02 00:34:30;;;;;;;18.02;16.23;;;;;;;;;;4957785;29;20114;-73
2023/08/02 00:36:57;;;;;;;21.25;15.88;;;;;;;;;;4957790;28;20037;-72
2023/08/02 00:39:23;;;;;;;19.23;16.02;;;;;;;;;;4956337;28;20035;-74
2023/08/02 00:42:06;;;;;;;26.83;15.30;;;;;;;;;;4955106;28;20417;-72
2023/08/02 00:44:32;;;;;;;28.33;14.52;;;;;;;;;;4954803;29;20176;-74
2023/08/02 00:46:58;;;;;;;37.97;14.10;;;;;;;;;;4955660;29;20532;-73
2023/08/02 00:49:24;;;;;;;26.67;13.70;;;;;;;;;;4954930;29;20043;-73
2023/08/02 00:51:50;;;;;;;26.17;14.30;;;;;;;;;;4956609;28;20054;-72
2023/08/02 00:54:16;;;;;;;27.70;15.13;;;;;;;;;;4938931;29;20134;-72
2023/08/02 00:56:42;;;;;;;23.23;16.40;;;;;;;;;;4954591;29;20486;-74
2023/08/02 00:59:10;;;;;;;21.13;17.02;;;;;;;;;;4955607;28;20134;-71
2023/08/02 01:01:35;;;;;;;25.17;21.25;;;;;;;;;;4955812;29;20046;-72
2023/08/02 01:04:02;;;;;;;26.50;19.80;;;;;;;;;;4953761;29;20043;-72
2023/08/02 01:06:41;;;;;;;27.58;18.23;;;;;;;;;;4953040;29;20041;-72
2023/08/02 01:09:20;;;;;;;25.48;17.55;;;;;;;;;;4953165;29;20046;-73
2023/08/02 01:11:49;;;;;;;26.00;18.45;;;;;;;;;;4953160;29;20042;-73
2023/08/02 01:14:16;;;;;;;21.42;15.77;;;;;;;;;;4953009;29;20054;-72
2023/08/02 01:16:42;;;;;;;19.05;14.70;;;;;;;;;;4953288;29;20118;-71
2023/08/02 01:19:09;;;;;;;20.58;16.60;;;;;;;;;;4955893;28;20050;-72
2023/08/02 01:21:35;;;;;;;37.72;15.38;;;;;;;;;;4963634;29;20027;-72
2023/08/02 01:24:01;;;;;;;17.38;15.50;;;;;;;;;;4960300;28;20126;-73
2023/08/02 01:26:27;;;;;;;16.73;15.25;;;;;;;;;;4954046;28;20119;-73
2023/08/02 01:28:53;;;;;;;16.02;14.75;;;;;;;;;;4952316;29;20564;-74
2023/08/02 01:31:19;;;;;;;26.13;20.08;;;;;;;;;;4952524;29;20079;-72
2023/08/02 01:33:48;;;;;;;22.95;20.50;;;;;;;;;;4936835;29;20540;-75
2023/08/02 01:36:14;;;;;;;29.45;23.25;;;;;;;;;;4953945;28;20043;-73
2023/08/02 01:38:40;;;;;;;17.00;14.40;;;;;;;;;;4953508;29;20416;-73
2023/08/02 01:41:08;;;;;;;32.72;22.75;;;;;;;;;;4953723;28;20043;-72
2023/08/02 01:43:35;;;;;;;40.50;25.58;;;;;;;;;;4952464;29;20078;-73
2023/08/02 01:46:01;;;;;;;36.10;26.52;;;;;;;;;;4953885;28;20047;-72
2023/08/02 01:48:27;;;;;;;39.33;27.80;;;;;;;;;;4953166;28;20031;-72
2023/08/02 01:50:53;;;;;;;40.08;26.90;;;;;;;;;;4953638;28;20457;-74
2023/08/02 01:53:19;;;;;;;43.17;28.30;;;;;;;;;;4952224;29;20138;-72
2023/08/02 01:55:45;;;;;;;41.78;28.95;;;;;;;;;;4953295;28;20387;-72
2023/08/02 01:58:11;;;;;;;42.33;28.80;;;;;;;;;;4952102;29;20145;-73
2023/08/02 02:00:37;;;;;;;42.30;28.50;;;;;;;;;;4952125;29;20035;-73
2023/08/02 02:03:03;;;;;;;43.95;28.25;;;;;;;;;;4952109;29;20031;-72
2023/08/02 02:05:29;;;;;;;45.78;28.02;;;;;;;;;;4952965;28;20039;-73
2023/08/02 02:07:54;;;;;;;43.50;27.67;;;;;;;;;;4953243;28;20141;-72
2023/08/02 02:10:20;;;;;;;44.30;28.58;;;;;;;;;;4953108;29;20158;-74
2023/08/02 02:12:46;;;;;;;44.47;28.58;;;;;;;;;;4953178;28;20202;-74
2023/08/02 02:15:12;;;;;;;38.40;28.35;;;;;;;;;;4953081;28;20039;-72
2023/08/02 02:17:39;;;;;;;48.20;30.60;;;;;;;;;;4952828;28;20383;-73
2023/08/02 02:20:06;;;;;;;44.47;28.85;;;;;;;;;;4953059;29;20043;-74
2023/08/02 02:22:32;;;;;;;46.33;30.25;;;;;;;;;;4952120;29;20509;-74
2023/08/02 02:24:58;;;;;;;38.00;27.55;;;;;;;;;;4952833;28;20203;-72
2023/08/02 02:27:25;;;;;;;27.83;23.52;;;;;;;;;;4951508;29;20103;-71
2023/08/02 02:29:51;;;;;;;34.10;22.15;;;;;;;;;;4952885;28;20569;-73
2023/08/02 02:32:18;;;;;;;23.52;19.10;;;;;;;;;;4952779;28;20050;-72
2023/08/02 02:34:43;;;;;;;30.38;17.95;;;;;;;;;;4952496;28;20039;-73
2023/08/02 02:37:10;;;;;;;24.65;16.52;;;;;;;;;;4952697;28;20043;-73
2023/08/02 02:39:36;;;;;;;23.50;16.83;;;;;;;;;;4951609;28;20042;-73
2023/08/02 02:42:02;;;;;;;20.40;16.90;;;;;;;;;;4951439;29;20076;-72
2023/08/02 02:44:43;;;;;;;18.55;16.73;;;;;;;;;;4950849;29;20035;-72
2023/08/02 02:47:09;;;;;;;26.58;18.45;;;;;;;;;;4952605;28;20134;-73
2023/08/02 02:49:35;;;;;;;27.52;19.88;;;;;;;;;;4952421;28;20039;-74
2023/08/02 02:52:01;;;;;;;27.50;20.80;;;;;;;;;;4952525;29;20050;-73
2023/08/02 02:54:27;;;;;;;26.80;20.80;;;;;;;;;;4952014;28;20478;-73
2023/08/02 02:56:53;;;;;;;34.13;20.05;;;;;;;;;;4952169;28;20430;-73
2023/08/02 02:59:19;;;;;;;27.23;20.20;;;;;;;;;;4951072;29;20043;-73
2023/08/02 03:01:45;;;;;;;26.80;20.58;;;;;;;;;;4952215;28;20027;-73
2023/08/02 03:04:11;;;;;;;34.50;21.63;;;;;;;;;;4952155;28;20050;-73
2023/08/02 03:06:37;;;;;;;26.58;20.58;;;;;;;;;;4952088;28;20059;-73
2023/08/02 03:09:04;;;;;;;36.45;19.35;;;;;;;;;;4952110;28;20035;-73
2023/08/02 03:11:30;;;;;;;16.13;14.35;;;;;;;;;;4951987;28;20090;-73
2023/08/02 03:13:56;;;;;;;18.20;11.48;;;;;;;;;;4934842;29;20133;-73
2023/08/02 03:16:22;;;;;;;13.68;12.50;;;;;;;;;;4950867;29;20616;-72
2023/08/02 03:18:49;;;;;;;32.05;12.75;;;;;;;;;;4952762;29;20166;-73
2023/08/02 03:21:15;;;;;;;15.52;13.23;;;;;;;;;;4954426;28;20130;-73
2023/08/02 03:23:42;;;;;;;18.50;16.67;;;;;;;;;;4950701;29;20487;-73
2023/08/02 03:26:08;;;;;;;17.30;15.40;;;;;;;;;;4952202;29;20043;-73
2023/08/02 03:28:35;;;;;;;18.75;16.80;;;;;;;;;;4951776;28;20453;-75
2023/08/02 03:31:01;;;;;;;17.23;15.43;;;;;;;;;;4952095;29;20038;-73
2023/08/02 03:33:27;;;;;;;17.58;15.75;;;;;;;;;;4950512;29;20055;-74
2023/08/02 03:35:53;;;;;;;18.63;16.67;;;;;;;;;;4951989;28;20410;-73
2023/08/02 03:38:19;;;;;;;19.55;17.33;;;;;;;;;;4951982;29;20067;-73
2023/08/02 03:40:45;;;;;;;30.83;21.25;;;;;;;;;;4951465;29;20501;-74
2023/08/02 03:43:11;;;;;;;27.58;18.17;;;;;;;;;;4951837;29;20078;-73
2023/08/02 03:45:36;;;;;;;20.35;18.20;;;;;;;;;;4951496;28;20094;-72
2023/08/02 03:48:03;;;;;;;15.88;14.38;;;;;;;;;;4951918;29;20498;-72
2023/08/02 03:50:29;;;;;;;20.52;13.95;;;;;;;;;;4935419;29;20030;-74
2023/08/02 03:52:54;;;;;;;23.90;13.32;;;;;;;;;;4955595;28;20043;-73
2023/08/02 03:55:20;;;;;;;14.27;12.88;;;;;;;;;;4955447;29;20058;-72
2023/08/02 03:57:46;;;;;;;14.70;13.30;;;;;;;;;;4970024;28;20055;-74
2023/08/02 04:00:12;;;;;;;14.25;12.95;;;;;;;;;;4955977;29;20043;-74
2023/08/02 04:02:38;;;;;;;15.15;13.45;;;;;;;;;;4955608;28;20418;-74
2023/08/02 04:05:05;;;;;;;15.32;13.85;;;;;;;;;;4955767;28;20413;-74
2023/08/02 04:07:31;;;;;;;26.73;18.88;;;;;;;;;;4954261;29;20156;-74
2023/08/02 04:09:57;;;;;;;26.13;18.33;;;;;;;;;;4954096;29;20031;-74
2023/08/02 04:12:23;;;;;;;32.88;18.38;;;;;;;;;;4955358;28;20054;-73
2023/08/02 04:14:49;;;;;;;17.65;15.00;;;;;;;;;;4955818;28;20035;-74
2023/08/02 04:17:15;;;;;;;16.45;14.80;;;;;;;;;;4956012;28;20062;-73
2023/08/02 04:19:41;;;;;;;25.73;16.38;;;;;;;;;;4956075;28;20043;-75
2023/08/02 04:22:07;;;;;;;26.95;16.52;;;;;;;;;;4956648;28;20047;-74
2023/08/02 04:24:33;;;;;;;20.70;16.55;;;;;;;;;;4958865;28;20062;-75
2023/08/02 04:26:59;;;;;;;25.30;20.38;;;;;;;;;;4962845;28;20483;-73
2023/08/02 04:29:25;;;;;;;28.02;19.60;;;;;;;;;;4962905;29;20136;-75
2023/08/02 04:31:51;;;;;;;26.33;18.23;;;;;;;;;;4961108;28;20039;-75
2023/08/02 04:34:16;;;;;;;31.20;18.65;;;;;;;;;;4953855;29;20582;-73
2023/08/02 04:36:43;;;;;;;27.08;18.67;;;;;;;;;;4954902;28;20034;-74
2023/08/02 04:39:10;;;;;;;23.40;17.90;;;;;;;;;;4955100;29;20042;-75
2023/08/02 04:41:36;;;;;;;25.58;18.05;;;;;;;;;;4937719;29;20038;-74
2023/08/02 04:44:02;;;;;;;24.83;17.65;;;;;;;;;;4955053;29;20035;-73
2023/08/02 04:46:29;;;;;;;25.35;17.75;;;;;;;;;;4955232;28;20455;-75
2023/08/02 04:48:55;;;;;;;25.42;17.52;;;;;;;;;;4954963;28;20027;-76
2023/08/02 04:51:21;;;;;;;22.17;18.58;;;;;;;;;;4954925;29;20050;-75
2023/08/02 04:53:49;;;;;;;26.20;18.52;;;;;;;;;;4953367;29;20051;-75
2023/08/02 04:56:15;;;;;;;25.63;19.95;;;;;;;;;;4953463;29;20046;-74
2023/08/02 04:58:41;;;;;;;28.83;18.58;;;;;;;;;;4954370;28;20082;-74
2023/08/02 05:01:08;;;;;;;22.05;19.70;;;;;;;;;;4954571;28;20086;-75
2023/08/02 05:03:34;;;;;;;23.25;19.20;;;;;;;;;;4953355;28;20454;-74
2023/08/02 05:06:00;;;;;;;27.23;20.38;;;;;;;;;;4954275;28;20039;-74
2023/08/02 05:08:28;;;;;;;27.27;19.63;;;;;;;;;;4954373;28;20035;-75
2023/08/02 05:10:54;;;;;;;31.40;19.20;;;;;;;;;;4954118;28;20039;-75
2023/08/02 05:13:24;;;;;;;26.00;18.75;;;;;;;;;;4954257;29;20066;-76
2023/08/02 05:15:51;;;;;;;25.30;18.67;;;;;;;;;;4952864;29;20039;-76
2023/08/02 05:18:17;;;;;;;25.00;17.48;;;;;;;;;;4953161;29;20418;-75
2023/08/02 05:20:43;;;;;;;28.33;18.77;;;;;;;;;;4954203;28;20546;-74
2023/08/02 05:23:09;;;;;;;32.58;19.60;;;;;;;;;;4953041;29;20540;-75
2023/08/02 05:25:35;;;;;;;37.22;20.38;;;;;;;;;;4952599;29;20423;-75
2023/08/02 05:28:01;;;;;;;29.38;19.30;;;;;;;;;;4954013;28;20050;-75
2023/08/02 05:30:27;;;;;;;26.70;19.17;;;;;;;;;;4954443;29;20039;-75
2023/08/02 05:32:54;;;;;;;27.52;18.55;;;;;;;;;;4953852;28;20178;-76
2023/08/02 05:35:20;;;;;;;29.27;18.52;;;;;;;;;;4954005;28;20081;-75
2023/08/02 05:37:46;;;;;;;26.23;19.65;;;;;;;;;;4953808;28;20125;-75
2023/08/02 05:40:12;;;;;;;20.55;17.88;;;;;;;;;;4953689;28;20094;-74
2023/08/02 05:42:38;;;;;;;21.65;16.58;;;;;;;;;;4953716;28;20043;-74
2023/08/02 05:45:05;;;;;;;28.08;17.30;;;;;;;;;;4952567;29;20031;-73
2023/08/02 05:47:32;;;;;;;23.38;18.58;;;;;;;;;;4953908;28;20041;-75
2023/08/02 05:49:58;;;;;;;20.50;16.60;;;;;;;;;;4953892;28;20511;-76
2023/08/02 05:52:24;;;;;;;23.02;14.98;;;;;;;;;;4952413;29;20071;-76
2023/08/02 05:54:51;;;;;;;17.60;15.20;;;;;;;;;;4953206;29;20086;-74
2023/08/02 05:57:17;;;;;;;18.98;14.07;;;;;;;;;;4952257;29;20142;-76
2023/08/02 05:59:43;;;;;;;16.85;13.60;;;;;;;;;;4953070;28;20043;-73
2023/08/02 06:02:09;;;;;;;19.95;13.10;;;;;;;;;;4953397;29;20521;-75
2023/08/02 06:04:35;;;;;;;15.55;12.30;;;;;;;;;;4952133;29;20058;-74
2023/08/02 06:07:02;;;;;;;20.27;11.48;;;;;;;;;;4952111;29;20019;-73
2023/08/02 06:09:28;;;;;;;14.15;11.27;;;;;;;;;;4953257;28;20051;-76
2023/08/02 06:11:55;;;;;;;11.15;9.98;;;;;;;;;;4953572;29;20326;-74
2023/08/02 06:14:20;;;;;;;14.85;9.75;;;;;;;;;;4953447;28;20051;-75
2023/08/02 06:16:46;;;;;;;10.85;9.90;;;;;;;;;;4953657;28;20042;-74
2023/08/02 06:19:12;;;;;;;15.10;11.05;;;;;;;;;;4951796;29;20050;-75
2023/08/02 06:21:39;;;;;;;12.75;9.73;;;;;;;;;;4953008;28;20035;-74
2023/08/02 06:24:05;;;;;;;18.65;10.60;;;;;;;;;;4953079;28;20545;-75
2023/08/02 06:26:31;;;;;;;12.65;9.30;;;;;;;;;;4952899;29;20084;-75
2023/08/02 06:28:57;;;;;;;12.15;9.32;;;;;;;;;;4952755;28;20035;-76
2023/08/02 06:31:23;;;;;;;14.75;10.18;;;;;;;;;;4952898;29;20045;-74
2023/08/02 06:33:49;;;;;;;10.25;8.70;;;;;;;;;;4952966;28;20043;-75
2023/08/02 06:36:15;;;;;;;11.32;10.30;;;;;;;;;;4951530;29;20106;-75
2023/08/02 06:38:41;;;;;;;10.75;9.75;;;;;;;;;;4952544;29;20039;-75
2023/08/02 06:41:07;;;;;;;13.10;10.60;;;;;;;;;;4952526;29;20098;-74
2023/08/02 06:43:33;;;;;;;16.27;11.00;;;;;;;;;;4935506;29;20551;-75
2023/08/02 06:45:59;;;;;;;16.27;9.55;;;;;;;;;;4952214;28;20132;-76
2023/08/02 06:48:25;;;;;;;11.68;9.90;;;;;;;;;;4952662;28;20098;-75
2023/08/02 06:50:51;;;;;;;11.40;9.98;;;;;;;;;;4952442;28;20043;-75
2023/08/02 06:53:18;;;;;;;11.45;10.00;;;;;;;;;;4951120;29;20057;-74
2023/08/02 06:55:44;;;;;;;12.32;9.52;;;;;;;;;;4952162;28;20042;-76
2023/08/02 06:58:10;;;;;;;12.35;8.32;;;;;;;;;;4952330;29;20355;-73
2023/08/02 07:00:36;;;;;;;16.02;9.60;;;;;;;;;;4950984;29;20031;-75
2023/08/02 07:03:02;;;;;;;9.07;8.35;;;;;;;;;;4952550;28;20050;-74
2023/08/02 07:05:28;;;;;;;11.73;9.30;;;;;;;;;;4952515;29;20661;-74
2023/08/02 07:07:55;;;;;;;9.05;7.60;;;;;;;;;;4952357;28;20097;-75
2023/08/02 07:10:22;;;;;;;8.15;7.28;;;;;;;;;;4952291;29;20062;-73
2023/08/02 07:12:50;;;;;;;10.13;9.13;;;;;;;;;;4952170;28;20051;-74
2023/08/02 07:15:17;;;;;;;9.93;8.73;;;;;;;;;;4951006;29;20035;-74
2023/08/02 07:17:44;;;;;;;10.55;9.48;;;;;;;;;;4951949;28;20035;-75
2023/08/02 07:20:10;;;;;;;9.07;8.25;;;;;;;;;;4966929;28;20067;-73
2023/08/02 07:22:37;;;;;;;9.32;7.40;;;;;;;;;;4952044;28;20039;-75
2023/08/02 07:25:03;;;;;;;12.18;8.32;;;;;;;;;;4951511;28;20031;-74
2023/08/02 07:27:29;;;;;;;8.30;7.50;;;;;;;;;;4952884;28;20046;-71
2023/08/02 07:29:56;;;;;;;12.63;7.40;;;;;;;;;;4952806;28;20039;-74
2023/08/02 07:32:23;;;;;;;8.15;7.45;;;;;;;;;;4962873;28;20134;-73
2023/08/02 07:34:48;;;;;;;14.57;6.53;;;;;;;;;;4961663;28;20043;-74
2023/08/02 07:37:15;;;;;;;7.28;6.60;;;;;;;;;;4954924;28;20414;-73
2023/08/02 07:39:41;;;;;;;7.15;5.75;;;;;;;;;;4951899;29;20046;-75
2023/08/02 07:42:07;;;;;;;7.03;6.30;;;;;;;;;;4952009;28;20122;-74
2023/08/02 07:44:33;;;;;;;9.98;6.57;;;;;;;;;;4950510;29;20035;-75
2023/08/02 07:46:59;;;;;;;11.05;6.70;;;;;;;;;;4951923;29;20031;-76
2023/08/02 07:49:25;;;;;;;8.13;6.55;;;;;;;;;;4950507;29;20039;-74
2023/08/02 07:51:51;;;;;;;6.70;6.20;;;;;;;;;;4951703;28;20099;-73
2023/08/02 07:54:17;;;;;;;8.85;6.93;;;;;;;;;;4951736;28;20146;-75
2023/08/02 07:56:43;;;;;;;7.22;6.72;;;;;;;;;;4951411;28;20574;-75
2023/08/02 07:59:09;;;;;;;7.85;7.15;;;;;;;;;;4951965;28;20055;-74
2023/08/02 08:01:35;;;;;;;7.78;7.07;;;;;;;;;;4951564;28;20071;-76
2023/08/02 08:04:01;;;;;;;7.35;6.75;;;;;;;;;;4934494;29;20074;-75
2023/08/02 08:06:27;;;;;;;7.07;6.00;;;;;;;;;;4951677;28;20541;-76
2023/08/02 08:08:53;;;;;;;7.88;7.18;;;;;;;;;;4951566;28;20039;-76
2023/08/02 08:11:19;;;;;;;5.90;5.43;;;;;;;;;;4951628;28;20039;-74
2023/08/02 08:13:45;;;;;;;7.70;6.55;;;;;;;;;;4951387;29;20079;-76
2023/08/02 08:16:11;;;;;;;8.43;7.03;;;;;;;;;;4951599;28;20141;-75
2023/08/02 08:18:37;;;;;;;6.95;6.25;;;;;;;;;;4951531;28;20042;-74
2023/08/02 08:21:03;;;;;;;7.57;6.85;;;;;;;;;;4934064;29;20040;-72
2023/08/02 08:23:29;;;;;;;7.18;6.47;;;;;;;;;;4951608;28;20050;-74
2023/08/02 08:25:55;;;;;;;6.55;6.05;;;;;;;;;;4950188;29;20046;-74
2023/08/02 08:28:21;;;;;;;6.53;5.93;;;;;;;;;;4951577;28;20035;-75
2023/08/02 08:30:47;;;;;;;5.68;5.18;;;;;;;;;;4951407;29;20043;-74
2023/08/02 08:33:14;;;;;;;5.47;5.13;;;;;;;;;;4952314;28;20047;-75
2023/08/02 08:35:40;;;;;;;7.00;4.45;;;;;;;;;;4952575;29;20043;-75
2023/08/02 08:38:06;;;;;;;5.85;5.07;;;;;;;;;;4952917;28;20048;-74
2023/08/02 08:40:32;;;;;;;4.43;4.00;;;;;;;;;;4953930;29;20035;-75
2023/08/02 08:42:58;;;;;;;5.07;4.68;;;;;;;;;;4954467;29;20035;-75
2023/08/02 08:45:25;;;;;;;5.68;5.18;;;;;;;;;;4953392;29;20139;-74
2023/08/02 08:47:51;;;;;;;6.00;5.40;;;;;;;;;;4954540;28;20506;-74
2023/08/02 08:50:17;;;;;;;10.88;5.10;;;;;;;;;;4954429;29;20045;-74
2023/08/02 08:52:47;;;;;;;5.82;5.25;;;;;;;;;;4954630;29;20130;-74
2023/08/02 08:55:13;;;;;;;8.52;5.45;;;;;;;;;;4954345;29;20139;-73
2023/08/02 08:57:39;;;;;;;5.85;5.25;;;;;;;;;;4954456;28;20087;-73
2023/08/02 09:00:07;;;;;;;7.50;5.47;;;;;;;;;;4954407;28;20027;-75
2023/08/02 09:02:33;;;;;;;7.53;5.43;;;;;;;;;;4954577;28;20039;-74
2023/08/02 09:05:00;;;;;;;6.43;5.82;;;;;;;;;;4954370;29;20054;-75
2023/08/02 09:07:27;;;;;;;5.57;5.18;;;;;;;;;;4954096;29;20050;-75
2023/08/02 09:09:53;;;;;;;5.60;5.30;;;;;;;;;;4954455;28;20047;-75
2023/08/02 09:12:19;;;;;;;7.05;5.60;;;;;;;;;;4954235;28;20030;-73
2023/08/02 09:14:59;;;;;;;5.18;4.88;;;;;;;;;;4954237;28;20043;-75
2023/08/02 09:17:25;;;;;;;5.97;5.50;;;;;;;;;;4954309;28;20618;-75
2023/08/02 09:19:51;;;;;;;8.13;5.43;;;;;;;;;;4953930;29;20130;-75
2023/08/02 09:22:17;;;;;;;5.68;5.18;;;;;;;;;;4952792;29;20048;-74
2023/08/02 09:24:43;;;;;;;5.82;5.20;;;;;;;;;;4954056;29;20409;-72
2023/08/02 09:27:14;;;;;;;7.50;5.50;;;;;;;;;;4953218;28;20038;-74
2023/08/02 09:29:44;;;;;;;7.00;5.70;;;;;;;;;;4953180;29;20611;-74
2023/08/02 09:32:11;;;;;;;5.40;5.00;;;;;;;;;;4953932;28;20062;-74
2023/08/02 09:34:57;;;;;;;5.95;5.13;;;;;;;;;;4954006;28;20122;-74
2023/08/02 09:37:36;;;;;;;6.95;5.20;;;;;;;;;;4952988;29;20039;-74
2023/08/02 09:40:04;;;;;;;6.88;4.80;;;;;;;;;;4953833;28;20039;-75
2023/08/02 09:42:30;;;;;;;5.53;5.03;;;;;;;;;;4954242;28;20039;-76
2023/08/02 09:45:00;;;;;;;5.63;4.55;;;;;;;;;;4953436;28;20039;-75
2023/08/02 09:47:26;;;;;;;5.57;4.47;;;;;;;;;;4952436;29;20050;-75
2023/08/02 09:50:02;;;;;;;4.90;4.50;;;;;;;;;;4952932;29;20041;-75
2023/08/02 09:52:31;;;;;;;7.95;4.20;;;;;;;;;;4953635;28;20059;-74
2023/08/02 09:54:57;;;;;;;5.68;4.25;;;;;;;;;;4953203;28;20043;-74
2023/08/02 09:57:26;;;;;;;4.72;4.47;;;;;;;;;;4953247;28;20411;-74
2023/08/02 09:59:53;;;;;;;5.80;5.22;;;;;;;;;;4953158;28;20038;-75
2023/08/02 10:02:27;;;;;;;5.97;4.50;;;;;;;;;;4953296;29;20043;-74
2023/08/02 10:04:54;;;;;;;4.50;3.80;;;;;;;;;;4951907;29;20074;-75
2023/08/02 10:07:20;;;;;;;5.88;4.25;;;;;;;;;;4953345;28;20039;-76
2023/08/02 10:09:46;;;;;;;4.65;4.22;;;;;;;;;;4953222;28;20042;-74
2023/08/02 10:12:13;;;;;;;7.65;4.53;;;;;;;;;;4951959;29;20035;-76
2023/08/02 10:14:39;;;;;;;6.05;4.10;;;;;;;;;;4954183;29;20043;-75
2023/08/02 10:17:05;;;;;;;4.55;4.20;;;;;;;;;;4953800;28;20604;-75
2023/08/02 10:19:33;;;;;;;4.40;4.10;;;;;;;;;;4952886;29;20175;-75
2023/08/02 10:21:59;;;;;;;7.97;4.00;;;;;;;;;;4951926;29;20027;-74
2023/08/02 10:24:26;;;;;;;4.25;3.85;;;;;;;;;;4953213;28;20035;-75
2023/08/02 10:26:55;;;;;;;7.15;4.30;;;;;;;;;;4952894;28;20035;-73
2023/08/02 10:29:21;;;;;;;4.38;4.07;;;;;;;;;;4952206;29;20066;-75
2023/08/02 10:31:47;;;;;;;4.25;3.95;;;;;;;;;;4952405;29;20059;-76
2023/08/02 10:34:32;;;;;;;5.18;4.47;;;;;;;;;;4953624;29;20083;-75
2023/08/02 10:36:58;;;;;;;4.57;4.28;;;;;;;;;;4956766;29;20039;-76
2023/08/02 10:39:43;;;;;;;4.85;4.55;;;;;;;;;;4944841;29;20031;-74
2023/08/02 10:42:09;;;;;;;5.53;4.18;;;;;;;;;;4957369;29;20043;-73
2023/08/02 10:44:35;;;;;;;4.80;4.40;;;;;;;;;;4952764;28;20039;-75
2023/08/02 10:47:19;;;;;;;5.20;4.30;;;;;;;;;;4951153;29;20023;-75
2023/08/02 10:49:46;;;;;;;5.30;4.38;;;;;;;;;;4952602;29;20042;-75
2023/08/02 10:52:41;;;;;;;4.93;4.35;;;;;;;;;;4952174;28;20047;-74
2023/08/02 10:55:11;;;;;;;5.28;4.05;;;;;;;;;;4950912;28;20055;-75
2023/08/02 10:57:37;;;;;;;4.95;4.15;;;;;;;;;;4952331;28;20576;-75
2023/08/02 11:00:20;;;;;;;6.45;4.78;;;;;;;;;;4951364;28;20474;-76
2023/08/02 11:02:46;;;;;;;6.10;5.18;;;;;;;;;;4952415;29;20042;-74
2023/08/02 11:05:13;;;;;;;7.80;5.45;;;;;;;;;;4951992;29;20490;-75
2023/08/02 11:07:39;;;;;;;5.75;5.28;;;;;;;;;;4952494;29;20039;-75
2023/08/02 11:10:05;;;;;;;5.70;5.20;;;;;;;;;;4952203;29;20046;-74
2023/08/02 11:12:33;;;;;;;4.95;4.43;;;;;;;;;;4952237;28;20054;-74
2023/08/02 11:14:59;;;;;;;5.10;4.80;;;;;;;;;;4952224;28;20070;-74
2023/08/02 11:17:25;;;;;;;5.10;4.70;;;;;;;;;;4952192;28;20114;-74
2023/08/02 11:19:52;;;;;;;4.30;4.00;;;;;;;;;;4952267;29;20121;-75
2023/08/02 11:22:18;;;;;;;4.38;4.00;;;;;;;;;;4950662;29;20027;-74
2023/08/02 11:24:44;;;;;;;4.25;3.92;;;;;;;;;;4952090;29;20039;-75
2023/08/02 11:27:16;;;;;;;7.13;4.47;;;;;;;;;;4950595;29;20043;-74
2023/08/02 11:29:55;;;;;;;4.78;4.47;;;;;;;;;;4952246;28;20039;-74
2023/08/02 11:32:21;;;;;;;3.83;3.63;;;;;;;;;;4951884;28;20125;-75
2023/08/02 11:34:46;;;;;;;4.60;4.40;;;;;;;;;;4952035;29;20126;-74
2023/08/02 11:37:12;;;;;;;3.55;3.10;;;;;;;;;;4950887;29;20039;-75
2023/08/02 11:39:40;;;;;;;4.13;3.85;;;;;;;;;;4952050;28;20078;-75
2023/08/02 11:42:06;;;;;;;4.82;4.50;;;;;;;;;;4950414;29;20047;-75
2023/08/02 11:44:32;;;;;;;3.88;3.67;;;;;;;;;;4950628;29;20454;-73
2023/08/02 11:46:58;;;;;;;4.78;4.38;;;;;;;;;;4951836;28;20035;-74
2023/08/02 11:49:24;;;;;;;4.57;3.55;;;;;;;;;;4951788;28;20032;-75
2023/08/02 11:51:50;;;;;;;4.65;4.35;;;;;;;;;;4950663;29;20074;-75
2023/08/02 11:54:16;;;;;;;4.38;3.85;;;;;;;;;;4950400;29;20074;-76
2023/08/02 11:56:42;;;;;;;4.55;4.25;;;;;;;;;;4951524;28;20031;-73
2023/08/02 11:59:11;;;;;;;5.50;4.70;;;;;;;;;;4952951;28;20502;-76
2023/08/02 12:01:41;;;;;;;5.25;4.75;;;;;;;;;;4952018;29;20045;-74
2023/08/02 12:04:08;;;;;;;3.63;3.42;;;;;;;;;;4951493;28;20171;-76
2023/08/02 12:06:44;;;;;;;4.30;4.10;;;;;;;;;;4951413;28;20646;-75
2023/08/02 12:09:10;;;;;;;5.32;4.28;;;;;;;;;;4951800;28;20184;-73
2023/08/02 12:11:36;;;;;;;4.03;3.80;;;;;;;;;;4952820;28;20159;-74
2023/08/02 12:14:02;;;;;;;3.92;3.45;;;;;;;;;;4954175;29;20429;-75
2023/08/02 12:16:41;;;;;;;3.42;3.10;;;;;;;;;;4955289;29;20035;-74
2023/08/02 12:19:07;;;;;;;5.53;3.30;;;;;;;;;;4955303;28;20507;-75
2023/08/02 12:21:34;;;;;;;3.10;2.90;;;;;;;;;;4955240;28;20118;-74
2023/08/02 12:24:10;;;;;;;3.60;3.28;;;;;;;;;;4953899;29;20524;-76
2023/08/02 12:26:36;;;;;;;5.13;3.20;;;;;;;;;;4953906;29;20532;-74
2023/08/02 12:29:02;;;;;;;3.78;3.50;;;;;;;;;;4954971;29;20129;-74
2023/08/02 12:31:29;;;;;;;5.88;3.50;;;;;;;;;;4954919;29;20035;-74
2023/08/02 12:33:55;;;;;;;3.60;3.20;;;;;;;;;;4953768;29;20135;-75
2023/08/02 12:36:27;;;;;;;3.55;3.35;;;;;;;;;;4955010;28;20421;-75
2023/08/02 12:38:54;;;;;;;4.55;3.65;;;;;;;;;;4955135;28;20039;-75
2023/08/02 12:41:20;;;;;;;4.40;4.10;;;;;;;;;;4954813;28;20490;-75
2023/08/02 12:43:46;;;;;;;7.32;4.30;;;;;;;;;;4955077;28;20462;-74
2023/08/02 12:46:12;;;;;;;4.32;4.13;;;;;;;;;;4954506;28;20039;-75
2023/08/02 12:48:38;;;;;;;5.72;4.63;;;;;;;;;;4953779;29;20047;-75
2023/08/02 12:51:04;;;;;;;5.13;4.40;;;;;;;;;;4953548;29;20602;-75
2023/08/02 12:53:30;;;;;;;5.15;4.55;;;;;;;;;;4954608;28;20469;-75
2023/08/02 12:55:56;;;;;;;7.70;4.28;;;;;;;;;;4954548;28;20130;-74
2023/08/02 12:58:22;;;;;;;5.15;4.57;;;;;;;;;;4953075;29;20059;-76
2023/08/02 13:00:51;;;;;;;6.53;4.82;;;;;;;;;;4954420;29;20039;-75
2023/08/02 13:03:17;;;;;;;5.80;5.32;;;;;;;;;;4954540;28;20039;-75
2023/08/02 13:05:43;;;;;;;7.10;5.15;;;;;;;;;;4954357;29;20205;-75
2023/08/02 13:08:09;;;;;;;8.88;5.22;;;;;;;;;;4954264;28;20047;-75
2023/08/02 13:10:35;;;;;;;5.60;4.75;;;;;;;;;;4953188;29;20027;-74
2023/08/02 13:13:01;;;;;;;6.32;5.15;;;;;;;;;;4954269;28;20089;-75
2023/08/02 13:15:28;;;;;;;5.50;5.00;;;;;;;;;;4954207;28;20031;-75
2023/08/02 13:17:54;;;;;;;7.40;5.10;;;;;;;;;;4954338;28;20532;-75
2023/08/02 13:20:20;;;;;;;6.75;5.40;;;;;;;;;;4954294;28;20050;-74
2023/08/02 13:22:46;;;;;;;10.38;5.43;;;;;;;;;;4953714;28;20494;-76
2023/08/02 13:25:12;;;;;;;8.52;5.72;;;;;;;;;;4954276;28;20039;-75
2023/08/02 13:27:38;;;;;;;10.52;5.80;;;;;;;;;;4954084;28;20046;-74
2023/08/02 13:30:05;;;;;;;5.90;5.50;;;;;;;;;;4952927;29;20481;-76
2023/08/02 13:32:34;;;;;;;6.93;5.40;;;;;;;;;;4954011;28;20410;-75
2023/08/02 13:35:01;;;;;;;6.88;5.30;;;;;;;;;;4953372;29;20065;-76
2023/08/02 13:37:29;;;;;;;7.55;4.82;;;;;;;;;;4954563;28;20042;-76
2023/08/02 13:39:56;;;;;;;5.53;5.07;;;;;;;;;;4955229;28;20039;-75
2023/08/02 13:42:23;;;;;;;4.85;4.45;;;;;;;;;;4957281;29;20094;-75
2023/08/02 13:44:52;;;;;;;5.20;4.70;;;;;;;;;;4965222;29;20098;-75
2023/08/02 13:47:18;;;;;;;5.80;5.30;;;;;;;;;;4961920;29;20073;-75
2023/08/02 13:49:44;;;;;;;6.75;5.43;;;;;;;;;;4953787;28;20059;-75
2023/08/02 13:52:10;;;;;;;5.88;4.90;;;;;;;;;;4952093;29;20038;-77
2023/08/02 13:54:36;;;;;;;5.88;5.38;;;;;;;;;;4953513;29;20522;-76
2023/08/02 13:57:02;;;;;;;6.43;4.93;;;;;;;;;;4953575;29;20105;-75
2023/08/02 13:59:28;;;;;;;5.88;5.03;;;;;;;;;;4953185;28;20047;-76
2023/08/02 14:01:54;;;;;;;5.85;5.45;;;;;;;;;;4954137;28;20495;-76
2023/08/02 14:04:20;;;;;;;6.40;5.90;;;;;;;;;;4953508;28;20046;-74
2023/08/02 14:06:46;;;;;;;6.10;5.60;;;;;;;;;;4953920;28;20034;-74
2023/08/02 14:09:12;;;;;;;6.15;5.75;;;;;;;;;;4954777;28;20102;-76
2023/08/02 14:11:38;;;;;;;7.00;6.50;;;;;;;;;;4953831;29;20035;-75
2023/08/02 14:14:08;;;;;;;6.80;6.05;;;;;;;;;;4953203;28;20071;-75
2023/08/02 14:16:37;;;;;;;6.68;6.03;;;;;;;;;;4951917;29;20036;-75
2023/08/02 14:19:03;;;;;;;6.38;5.90;;;;;;;;;;4953165;29;20531;-75
2023/08/02 14:21:29;;;;;;;9.70;6.80;;;;;;;;;;4952747;28;20042;-74
2023/08/02 14:23:55;;;;;;;9.05;6.70;;;;;;;;;;4953164;28;20047;-76
2023/08/02 14:26:21;;;;;;;10.00;6.60;;;;;;;;;;4952728;28;20046;-75
2023/08/02 14:28:47;;;;;;;7.15;6.55;;;;;;;;;;4952802;29;20050;-74